createdAt,value
2022-10-19T00:00:04.257Z,22.60
2022-10-19T00:02:11.557Z,22.60
2022-10-19T00:04:16.190Z,22.60
2022-10-19T00:06:26.795Z,22.70
2022-10-19T00:08:31.137Z,22.60
2022-10-19T00:10:35.274Z,22.70
2022-10-19T00:12:42.115Z,22.60
2022-10-19T00:14:46.272Z,22.70
2022-10-19T00:16:54.323Z,22.70
2022-10-19T00:19:00.689Z,22.90
2022-10-19T00:21:06.043Z,22.90
2022-10-19T00:23:10.349Z,22.80
2022-10-19T00:25:16.989Z,22.80
2022-10-19T00:27:21.115Z,22.90
2022-10-19T00:29:25.924Z,22.90
2022-10-19T00:31:30.065Z,23.00
2022-10-19T00:33:36.010Z,23.10
2022-10-19T00:35:45.050Z,23.20
2022-10-19T00:37:51.625Z,23.30
2022-10-19T00:40:02.527Z,23.20
2022-10-19T00:42:17.119Z,23.10
2022-10-19T00:44:24.500Z,23.20
2022-10-19T00:46:30.841Z,23.00
2022-10-19T00:48:37.021Z,23.20
2022-10-19T00:50:43.386Z,23.20
2022-10-19T00:52:47.961Z,23.30
2022-10-19T00:55:03.725Z,23.30
2022-10-19T00:57:12.281Z,23.30
2022-10-19T00:59:20.786Z,23.30
2022-10-19T01:01:37.238Z,23.40
2022-10-19T01:03:41.502Z,23.50
2022-10-19T01:05:45.979Z,23.60
2022-10-19T01:07:52.382Z,23.60
2022-10-19T01:10:00.078Z,23.50
2022-10-19T01:12:08.822Z,23.60
2022-10-19T01:14:34.560Z,23.70
2022-10-19T01:16:51.848Z,23.70
2022-10-19T01:19:07.945Z,23.80
2022-10-19T01:21:20.072Z,23.80
2022-10-19T01:23:36.388Z,23.80
2022-10-19T01:25:45.201Z,23.90
2022-10-19T01:28:01.711Z,24.00
2022-10-19T01:30:08.482Z,24.10
2022-10-19T01:32:13.613Z,24.20
2022-10-19T01:34:26.061Z,24.20
2022-10-19T01:36:42.952Z,24.30
2022-10-19T01:38:55.160Z,24.40
2022-10-19T01:41:01.901Z,24.50
2022-10-19T01:43:11.150Z,24.50
2022-10-19T01:45:19.032Z,24.50
2022-10-19T01:47:27.397Z,24.60
2022-10-19T01:49:38.223Z,24.70
2022-10-19T01:51:45.868Z,24.60
2022-10-19T01:53:51.313Z,24.70
2022-10-19T01:55:55.681Z,24.80
2022-10-19T01:58:02.052Z,24.80
2022-10-19T02:00:08.588Z,24.80
2022-10-19T02:02:28.306Z,24.90
2022-10-19T02:04:33.999Z,24.90
2022-10-19T02:06:40.153Z,24.90
2022-10-19T02:08:46.657Z,25.00
2022-10-19T02:10:55.129Z,25.00
2022-10-19T02:13:09.296Z,25.10
2022-10-19T02:15:23.515Z,25.10
2022-10-19T02:17:31.676Z,25.20
2022-10-19T02:19:37.774Z,25.30
2022-10-19T02:21:43.926Z,25.30
2022-10-19T02:23:54.412Z,25.30
2022-10-19T02:26:02.367Z,25.30
2022-10-19T02:30:43.407Z,25.40
2022-10-19T02:33:04.676Z,25.40
2022-10-19T02:35:10.444Z,25.40
2022-10-19T02:37:14.911Z,25.60
2022-10-19T02:39:19.582Z,25.60
2022-10-19T02:41:25.998Z,25.60
2022-10-19T02:43:31.834Z,25.70
2022-10-19T02:45:42.715Z,25.70
2022-10-19T02:47:49.369Z,25.60
2022-10-19T02:49:53.260Z,25.70
2022-10-19T02:52:01.305Z,25.80
2022-10-19T02:54:05.593Z,25.70
2022-10-19T02:56:10.285Z,25.80
2022-10-19T02:58:19.181Z,25.80
2022-10-19T03:00:23.268Z,25.90
2022-10-19T03:02:29.663Z,25.90
2022-10-19T03:04:38.821Z,25.90
2022-10-19T03:06:51.485Z,25.90
2022-10-19T03:08:57.419Z,26.00
2022-10-19T03:11:06.298Z,26.00
2022-10-19T03:13:17.791Z,25.90
2022-10-19T03:15:29.963Z,26.00
2022-10-19T03:17:36.894Z,26.00
2022-10-19T03:19:44.521Z,26.10
2022-10-19T03:21:49.347Z,26.20
2022-10-19T03:23:55.470Z,26.20
2022-10-19T03:26:01.735Z,26.30
2022-10-19T03:28:05.839Z,26.30
2022-10-19T03:30:12.979Z,26.40
2022-10-19T03:32:19.495Z,26.40
2022-10-19T03:34:25.041Z,26.40
2022-10-19T03:36:32.412Z,26.40
2022-10-19T03:38:38.620Z,26.50
2022-10-19T03:40:42.528Z,26.60
2022-10-19T03:42:49.564Z,26.70
2022-10-19T03:44:55.519Z,26.70
2022-10-19T03:47:00.359Z,26.70
2022-10-19T03:49:07.571Z,26.70
2022-10-19T03:51:15.744Z,26.80
2022-10-19T03:53:19.593Z,26.80
2022-10-19T03:55:26.725Z,26.90
2022-10-19T03:57:32.825Z,26.90
2022-10-19T03:59:37.559Z,27.00
2022-10-19T04:01:47.129Z,27.00
2022-10-19T04:04:11.137Z,27.00
2022-10-19T04:06:19.595Z,27.10
2022-10-19T04:08:27.848Z,27.30
2022-10-19T04:10:32.343Z,27.20
2022-10-19T04:12:37.275Z,27.20
2022-10-19T04:14:56.721Z,27.20
2022-10-19T04:17:10.269Z,27.30
2022-10-19T04:19:23.604Z,27.30
2022-10-19T04:21:45.814Z,27.40
2022-10-19T04:23:52.693Z,27.40
2022-10-19T04:26:03.563Z,27.30
2022-10-19T04:28:10.522Z,27.40
2022-10-19T04:30:27.240Z,27.50
2022-10-19T04:32:36.123Z,27.50
2022-10-19T04:34:44.934Z,27.60
2022-10-19T04:37:00.351Z,27.70
2022-10-19T04:39:24.087Z,27.60
2022-10-19T04:41:28.201Z,27.70
2022-10-19T04:43:35.451Z,27.80
2022-10-19T04:45:39.577Z,27.90
2022-10-19T04:47:46.118Z,27.90
2022-10-19T04:49:50.013Z,27.90
2022-10-19T04:51:54.065Z,27.80
2022-10-19T04:54:01.433Z,27.90
2022-10-19T04:56:08.013Z,27.90
2022-10-19T04:58:12.765Z,28.00
2022-10-19T05:00:19.313Z,28.10
2022-10-19T05:02:46.808Z,28.10
2022-10-19T05:04:56.432Z,28.10
2022-10-19T05:07:03.271Z,28.30
2022-10-19T05:09:08.607Z,28.30
2022-10-19T05:11:30.411Z,28.20
2022-10-19T05:13:40.577Z,28.30
2022-10-19T05:15:59.216Z,28.40
2022-10-19T05:18:03.445Z,28.50
2022-10-19T05:20:09.021Z,28.40
2022-10-19T05:22:13.386Z,28.40
2022-10-19T05:24:18.822Z,28.40
2022-10-19T05:26:42.639Z,28.50
2022-10-19T05:28:57.413Z,28.50
2022-10-19T05:31:08.781Z,28.60
2022-10-19T05:33:32.622Z,28.70
2022-10-19T05:35:45.007Z,28.70
2022-10-19T05:37:58.772Z,28.60
2022-10-19T05:40:15.988Z,28.60
2022-10-19T05:42:39.722Z,28.70
2022-10-19T05:45:03.736Z,28.70
2022-10-19T05:47:31.025Z,28.80
2022-10-19T05:49:53.234Z,28.80
2022-10-19T05:52:00.515Z,28.70
2022-10-19T05:54:04.995Z,28.80
2022-10-19T05:56:10.847Z,28.80
2022-10-19T05:58:15.966Z,29.00
2022-10-19T06:00:20.169Z,29.00
2022-10-19T06:02:24.626Z,29.00
2022-10-19T06:04:30.152Z,29.00
2022-10-19T06:06:34.569Z,28.80
2022-10-19T06:08:40.936Z,28.90
2022-10-19T06:10:45.283Z,29.00
2022-10-19T06:12:49.805Z,29.00
2022-10-19T06:14:53.882Z,29.00
2022-10-19T06:17:00.308Z,29.00
2022-10-19T06:19:04.434Z,29.10
2022-10-19T06:21:10.765Z,29.10
2022-10-19T06:23:15.180Z,29.10
2022-10-19T06:25:20.450Z,29.10
2022-10-19T06:27:27.581Z,29.10
2022-10-19T06:29:32.745Z,29.20
2022-10-19T06:31:37.384Z,29.30
2022-10-19T06:33:42.517Z,29.30
2022-10-19T06:35:46.896Z,29.30
2022-10-19T06:37:58.809Z,29.30
2022-10-19T06:40:07.270Z,29.30
2022-10-19T06:42:13.523Z,29.30
2022-10-19T06:44:17.517Z,29.40
2022-10-19T06:46:24.173Z,29.40
2022-10-19T06:48:28.075Z,29.40
2022-10-19T06:50:36.687Z,29.40
2022-10-19T06:53:00.632Z,29.40
2022-10-19T06:55:19.571Z,29.40
2022-10-19T06:57:27.944Z,29.60
2022-10-19T06:59:46.537Z,29.60
2022-10-19T07:01:53.103Z,29.70
2022-10-19T07:04:01.812Z,29.70
2022-10-19T07:06:11.278Z,29.70
2022-10-19T07:08:20.079Z,29.60
2022-10-19T07:10:27.323Z,29.60
2022-10-19T07:12:32.547Z,29.60
2022-10-19T07:14:40.537Z,29.40
2022-10-19T07:16:44.470Z,29.40
2022-10-19T07:18:48.988Z,29.40
2022-10-19T07:20:59.920Z,29.40
2022-10-19T07:23:04.204Z,29.50
2022-10-19T07:25:09.158Z,29.50
2022-10-19T07:27:13.459Z,29.50
2022-10-19T07:29:18.717Z,29.60
2022-10-19T07:31:23.531Z,29.50
2022-10-19T07:33:28.686Z,29.50
2022-10-19T07:35:32.765Z,29.60
2022-10-19T07:37:37.161Z,29.50
2022-10-19T07:39:41.146Z,29.50
2022-10-19T07:41:47.443Z,29.50
2022-10-19T07:43:51.516Z,29.50
2022-10-19T07:46:06.764Z,29.60
2022-10-19T07:48:10.671Z,29.60
2022-10-19T07:50:20.424Z,29.60
2022-10-19T07:52:26.613Z,29.60
2022-10-19T07:54:30.852Z,29.60
2022-10-19T07:56:37.184Z,29.60
2022-10-19T07:58:41.905Z,29.60
2022-10-19T08:00:46.012Z,29.70
2022-10-19T08:03:00.180Z,29.70
2022-10-19T08:05:16.419Z,29.70
2022-10-19T08:07:20.495Z,29.70
2022-10-19T08:09:51.634Z,29.80
2022-10-19T08:11:56.101Z,29.70
2022-10-19T08:14:04.192Z,29.80
2022-10-19T08:16:24.812Z,29.80
2022-10-19T08:18:34.060Z,29.70
2022-10-19T08:20:42.902Z,29.70
2022-10-19T08:22:56.367Z,29.70
2022-10-19T08:25:14.029Z,29.70
2022-10-19T08:27:18.324Z,29.70
2022-10-19T08:29:26.596Z,29.60
2022-10-19T08:31:49.618Z,29.70
2022-10-19T08:33:56.703Z,29.70
2022-10-19T08:36:04.330Z,29.70
2022-10-19T08:38:15.860Z,29.70
2022-10-19T08:40:26.865Z,29.70
2022-10-19T08:42:38.976Z,29.60
2022-10-19T08:44:55.329Z,29.60
2022-10-19T08:47:14.126Z,29.60
2022-10-19T08:49:21.749Z,29.70
2022-10-19T08:51:47.772Z,29.70
2022-10-19T08:53:57.462Z,29.60
2022-10-19T08:56:06.523Z,29.60
2022-10-19T08:58:34.736Z,29.60
2022-10-19T09:00:44.893Z,29.60
2022-10-19T09:03:11.319Z,29.70
2022-10-19T09:05:36.024Z,29.70
2022-10-19T09:07:55.741Z,29.70
2022-10-19T09:10:03.072Z,29.60
2022-10-19T09:12:17.098Z,29.50
2022-10-19T09:14:37.443Z,29.50
2022-10-19T09:16:43.802Z,29.60
2022-10-19T09:18:48.554Z,29.60
2022-10-19T09:20:54.112Z,29.60
2022-10-19T09:23:13.378Z,29.50
2022-10-19T09:25:26.160Z,29.50
2022-10-19T09:27:39.183Z,29.50
2022-10-19T09:29:47.474Z,29.50
2022-10-19T09:31:55.355Z,29.50
2022-10-19T09:34:21.159Z,29.50
2022-10-19T09:36:49.443Z,29.50
2022-10-19T09:38:57.883Z,29.50
2022-10-19T09:41:14.976Z,29.40
2022-10-19T09:43:29.513Z,29.40
2022-10-19T09:45:36.182Z,29.30
2022-10-19T09:48:08.771Z,29.30
2022-10-19T09:50:24.382Z,29.30
2022-10-19T09:52:41.980Z,29.40
2022-10-19T09:55:25.770Z,29.40
2022-10-19T09:57:33.161Z,29.30
2022-10-19T09:59:56.755Z,29.30
2022-10-19T10:02:16.027Z,29.30
2022-10-19T10:04:27.590Z,29.30
2022-10-19T10:06:39.835Z,29.30
2022-10-19T10:08:48.955Z,29.20
2022-10-19T10:11:05.848Z,29.20
2022-10-19T10:13:31.962Z,29.20
2022-10-19T10:15:44.144Z,29.10
2022-10-19T10:18:08.004Z,29.10
2022-10-19T10:20:26.994Z,29.10
2022-10-19T10:22:33.635Z,29.10
2022-10-19T10:24:37.816Z,29.00
2022-10-19T10:26:47.479Z,29.00
2022-10-19T10:28:53.872Z,28.90
2022-10-19T10:31:07.000Z,28.90
2022-10-19T10:33:27.332Z,28.90
2022-10-19T10:35:54.453Z,28.80
2022-10-19T10:38:11.236Z,28.80
2022-10-19T10:40:26.647Z,28.80
2022-10-19T10:42:42.992Z,28.70
2022-10-19T10:44:51.209Z,28.70
2022-10-19T10:47:01.894Z,28.60
2022-10-19T10:49:21.974Z,28.50
2022-10-19T10:51:50.578Z,28.50
2022-10-19T10:54:17.111Z,28.50
2022-10-19T10:56:28.904Z,28.40
2022-10-19T10:58:54.927Z,28.40
2022-10-19T11:01:06.696Z,28.40
2022-10-19T11:03:30.100Z,28.30
2022-10-19T11:05:43.351Z,28.30
2022-10-19T11:07:51.926Z,28.30
2022-10-19T11:10:10.925Z,28.30
2022-10-19T11:12:35.178Z,28.20
2022-10-19T11:14:48.326Z,28.20
2022-10-19T11:16:54.443Z,28.20
2022-10-19T11:21:28.227Z,28.10
2022-10-19T11:23:47.785Z,28.10
2022-10-19T11:26:08.010Z,28.00
2022-10-19T11:28:26.863Z,28.00
2022-10-19T11:30:35.011Z,27.90
2022-10-19T11:32:58.343Z,27.90
2022-10-19T11:35:06.187Z,27.90
2022-10-19T11:37:15.028Z,27.80
2022-10-19T11:39:34.703Z,27.80
2022-10-19T11:41:40.582Z,27.70
2022-10-19T11:44:11.575Z,27.70
2022-10-19T11:46:38.644Z,27.70
2022-10-19T11:49:03.321Z,27.70
2022-10-19T11:51:21.696Z,27.70
2022-10-19T11:53:39.479Z,27.70
2022-10-19T11:55:56.461Z,27.60
2022-10-19T11:58:23.606Z,27.60
2022-10-19T12:00:39.275Z,27.60
2022-10-19T12:03:04.012Z,27.60
2022-10-19T12:05:21.086Z,27.50
2022-10-19T12:07:30.879Z,27.50
2022-10-19T12:09:49.889Z,27.40
2022-10-19T12:12:04.304Z,27.40
2022-10-19T12:14:19.665Z,27.40
2022-10-19T12:16:48.197Z,27.30
2022-10-19T12:18:59.536Z,27.30
2022-10-19T12:21:13.281Z,27.30
2022-10-19T12:23:38.761Z,27.30
2022-10-19T12:26:05.713Z,27.30
2022-10-19T12:28:31.179Z,27.30
2022-10-19T12:30:38.755Z,27.20
2022-10-19T12:33:05.139Z,27.20
2022-10-19T12:37:41.048Z,27.10
2022-10-19T12:39:50.774Z,27.10
2022-10-19T12:42:19.316Z,27.10
2022-10-19T12:44:30.200Z,27.10
2022-10-19T12:46:53.021Z,27.00
2022-10-19T12:49:17.877Z,27.00
2022-10-19T12:51:45.700Z,27.00
2022-10-19T12:53:54.242Z,27.00
2022-10-19T12:56:09.938Z,27.00
2022-10-19T12:58:26.127Z,26.90
2022-10-19T13:00:43.245Z,27.00
2022-10-19T13:03:19.568Z,26.90
2022-10-19T13:05:46.097Z,26.90
2022-10-19T13:08:12.360Z,26.90
2022-10-19T13:10:27.290Z,26.90
2022-10-19T13:12:44.902Z,26.90
2022-10-19T13:14:55.582Z,26.80
2022-10-19T13:17:12.216Z,26.80
2022-10-19T13:19:30.815Z,26.80
2022-10-19T13:21:55.594Z,26.80
2022-10-19T13:24:18.159Z,26.70
2022-10-19T13:26:34.750Z,26.70
2022-10-19T13:28:52.930Z,26.70
2022-10-19T13:31:25.886Z,26.60
2022-10-19T13:33:50.755Z,26.60
2022-10-19T13:36:09.192Z,26.60
2022-10-19T13:38:40.524Z,26.60
2022-10-19T13:41:09.487Z,26.60
2022-10-19T13:43:18.117Z,26.50
2022-10-19T13:45:24.018Z,26.50
2022-10-19T13:47:35.725Z,26.50
2022-10-19T13:49:42.537Z,26.50
2022-10-19T13:51:46.396Z,26.40
2022-10-19T13:53:57.138Z,26.40
2022-10-19T13:56:13.282Z,26.40
2022-10-19T13:58:29.313Z,26.40
2022-10-19T14:01:06.862Z,26.40
2022-10-19T14:03:30.274Z,26.40
2022-10-19T14:05:51.497Z,26.30
2022-10-19T14:08:34.246Z,26.40
2022-10-19T14:11:01.603Z,26.40
2022-10-19T14:13:13.277Z,26.40
2022-10-19T14:15:31.235Z,26.40
2022-10-19T14:17:55.980Z,26.40
2022-10-19T14:20:29.240Z,26.40
2022-10-19T14:22:42.908Z,26.40
2022-10-19T14:25:18.986Z,26.40
2022-10-19T14:27:42.654Z,26.40
2022-10-19T14:29:52.369Z,26.40
2022-10-19T14:32:09.246Z,26.40
2022-10-19T14:34:23.541Z,26.30
2022-10-19T14:36:32.734Z,26.30
2022-10-19T14:38:38.024Z,26.30
2022-10-19T14:40:43.004Z,26.30
2022-10-19T14:42:48.872Z,26.30
2022-10-19T14:45:06.832Z,26.20
2022-10-19T14:47:31.421Z,26.20
2022-10-19T14:49:55.426Z,26.30
2022-10-19T14:52:12.720Z,26.20
2022-10-19T14:54:33.473Z,26.20
2022-10-19T14:56:51.732Z,26.20
2022-10-19T14:59:13.028Z,26.20
2022-10-19T15:01:25.301Z,26.10
2022-10-19T15:03:42.828Z,26.10
2022-10-19T15:05:51.877Z,26.10
2022-10-19T15:07:59.528Z,26.10
2022-10-19T15:10:22.514Z,26.10
2022-10-19T15:12:48.433Z,26.10
2022-10-19T15:14:52.624Z,26.00
2022-10-19T15:17:00.398Z,26.00
2022-10-19T15:19:09.657Z,26.00
2022-10-19T15:21:19.004Z,26.00
2022-10-19T15:23:32.026Z,26.00
2022-10-19T15:25:38.221Z,25.90
2022-10-19T15:27:48.597Z,25.90
2022-10-19T15:29:59.211Z,26.00
2022-10-19T15:32:19.997Z,25.90
2022-10-19T15:34:30.930Z,25.90
2022-10-19T15:36:40.754Z,26.00
2022-10-19T15:39:25.388Z,25.80
2022-10-19T15:41:39.217Z,25.80
2022-10-19T15:43:50.451Z,25.80
2022-10-19T15:46:06.812Z,25.70
2022-10-19T15:48:22.990Z,25.70
2022-10-19T15:50:34.083Z,25.70
2022-10-19T15:52:40.165Z,25.60
2022-10-19T15:54:44.440Z,25.60
2022-10-19T15:56:50.919Z,25.50
2022-10-19T15:58:57.326Z,25.50
2022-10-19T16:01:01.425Z,25.50
2022-10-19T16:03:06.857Z,25.50
2022-10-19T16:05:10.896Z,25.50
2022-10-19T16:07:20.896Z,25.50
2022-10-19T16:09:25.364Z,25.50
2022-10-19T16:11:31.259Z,25.50
2022-10-19T16:13:35.177Z,25.50
2022-10-19T16:15:43.562Z,25.40
2022-10-19T16:17:57.088Z,25.40
2022-10-19T16:20:10.547Z,25.40
2022-10-19T16:22:34.723Z,25.40
2022-10-19T16:24:43.852Z,25.40
2022-10-19T16:26:54.828Z,25.40
2022-10-19T16:29:06.291Z,25.40
2022-10-19T16:31:13.590Z,25.40
2022-10-19T16:33:34.419Z,25.40
2022-10-19T16:35:53.353Z,25.40
2022-10-19T16:38:18.985Z,25.40
2022-10-19T16:40:39.518Z,25.40
2022-10-19T16:42:55.768Z,25.30
2022-10-19T16:45:21.448Z,25.30
2022-10-19T16:47:31.876Z,25.30
2022-10-19T16:49:44.340Z,25.30
2022-10-19T16:52:07.224Z,25.20
2022-10-19T16:54:11.736Z,25.20
2022-10-19T16:56:20.132Z,25.20
2022-10-19T16:58:24.001Z,25.20
2022-10-19T17:00:27.986Z,25.20
2022-10-19T17:02:43.078Z,25.20
2022-10-19T17:04:52.007Z,25.20
2022-10-19T17:06:56.012Z,25.20
2022-10-19T17:09:36.656Z,25.20
2022-10-19T17:11:25.363Z,25.20
2022-10-19T17:13:29.656Z,25.10
2022-10-19T17:15:48.883Z,25.10
2022-10-19T17:17:53.288Z,25.10
2022-10-19T17:20:01.627Z,25.10
2022-10-19T17:22:15.110Z,25.10
2022-10-19T17:24:22.245Z,25.00
2022-10-19T17:26:27.191Z,25.00
2022-10-19T17:28:33.357Z,24.90
2022-10-19T17:30:41.623Z,24.90
2022-10-19T17:32:45.719Z,24.80
2022-10-19T17:34:53.689Z,24.80
2022-10-19T17:36:59.553Z,24.80
2022-10-19T17:39:04.773Z,24.80
2022-10-19T17:41:13.157Z,24.80
2022-10-19T17:43:19.178Z,24.80
2022-10-19T17:45:23.083Z,24.80
2022-10-19T17:47:29.358Z,24.80
2022-10-19T17:49:38.615Z,24.80
2022-10-19T17:51:42.766Z,24.80
2022-10-19T17:53:51.232Z,24.80
2022-10-19T17:55:57.371Z,24.60
2022-10-19T17:58:02.860Z,24.60
2022-10-19T18:00:10.283Z,24.60
2022-10-19T18:02:25.139Z,24.60
2022-10-19T18:04:29.609Z,24.60
2022-10-19T18:06:36.962Z,24.60
2022-10-19T18:08:44.032Z,24.60
2022-10-19T18:10:48.273Z,24.60
2022-10-19T18:12:55.796Z,24.50
2022-10-19T18:15:01.880Z,24.60
2022-10-19T18:17:07.224Z,24.50
2022-10-19T18:19:17.064Z,24.50
2022-10-19T18:21:26.339Z,24.50
2022-10-19T18:23:30.415Z,24.50
2022-10-19T18:25:53.436Z,24.50
2022-10-19T18:28:02.567Z,24.40
2022-10-19T18:30:26.496Z,24.40
2022-10-19T18:32:40.777Z,24.40
2022-10-19T18:34:48.638Z,24.40
2022-10-19T18:36:56.544Z,24.40
2022-10-19T18:39:07.771Z,24.40
2022-10-19T18:41:18.702Z,24.30
2022-10-19T18:43:27.714Z,24.30
2022-10-19T18:45:54.707Z,24.20
2022-10-19T18:48:02.120Z,24.30
2022-10-19T18:50:06.899Z,24.20
2022-10-19T18:52:14.564Z,24.20
2022-10-19T18:54:21.102Z,24.20
2022-10-19T18:56:37.409Z,24.20
2022-10-19T18:58:50.791Z,24.20
2022-10-19T19:01:07.152Z,24.20
2022-10-19T19:03:11.775Z,24.20
2022-10-19T19:05:37.611Z,24.20
2022-10-19T19:07:44.252Z,24.20
2022-10-19T19:09:51.060Z,24.20
2022-10-19T19:12:01.519Z,24.20
2022-10-19T19:14:13.593Z,24.10
2022-10-19T19:16:21.853Z,24.10
2022-10-19T19:18:32.363Z,24.10
2022-10-19T19:20:44.048Z,24.10
2022-10-19T19:23:06.642Z,24.00
2022-10-19T19:25:25.041Z,24.00
2022-10-19T19:27:51.184Z,24.10
2022-10-19T19:29:55.865Z,23.90
2022-10-19T19:32:07.688Z,23.90
2022-10-19T19:34:25.753Z,23.90
2022-10-19T19:36:31.282Z,24.00
2022-10-19T19:38:41.716Z,23.90
2022-10-19T19:40:50.256Z,23.90
2022-10-19T19:43:00.294Z,23.90
2022-10-19T19:45:07.647Z,23.80
2022-10-19T19:47:15.600Z,23.70
2022-10-19T19:49:26.049Z,23.60
2022-10-19T19:51:33.177Z,23.70
2022-10-19T19:53:40.483Z,23.80
2022-10-19T19:55:53.495Z,23.70
2022-10-19T19:58:02.528Z,23.70
2022-10-19T20:00:11.297Z,23.80
2022-10-19T20:02:27.995Z,23.70
2022-10-19T20:04:36.897Z,23.70
2022-10-19T20:06:55.078Z,23.70
2022-10-19T20:08:59.528Z,23.70
2022-10-19T20:11:24.037Z,23.70
2022-10-19T20:13:44.970Z,23.70
2022-10-19T20:15:59.976Z,23.70
2022-10-19T20:18:09.616Z,23.70
2022-10-19T20:20:19.069Z,23.50
2022-10-19T20:22:33.473Z,23.50
2022-10-19T20:24:42.222Z,23.50
2022-10-19T20:26:48.815Z,23.20
2022-10-19T20:28:53.068Z,23.20
2022-10-19T20:31:07.664Z,23.10
2022-10-19T20:33:13.684Z,23.10
2022-10-19T20:35:18.109Z,23.30
2022-10-19T20:37:28.261Z,23.40
2022-10-19T20:39:32.756Z,23.40
2022-10-19T20:41:36.874Z,23.40
2022-10-19T20:43:43.618Z,23.40
2022-10-19T20:45:53.148Z,23.40
2022-10-19T20:47:57.458Z,23.40
2022-10-19T20:52:15.979Z,23.40
2022-10-19T20:54:22.225Z,23.40
2022-10-19T20:56:29.483Z,23.40
2022-10-19T20:58:35.478Z,23.40
2022-10-19T21:00:43.045Z,23.40
2022-10-19T21:02:57.958Z,23.40
2022-10-19T21:05:09.840Z,23.50
2022-10-19T21:07:33.748Z,23.40
2022-10-19T21:09:42.399Z,23.40
2022-10-19T21:11:48.709Z,23.40
2022-10-19T21:13:58.452Z,23.40
2022-10-19T21:16:16.360Z,23.40
2022-10-19T21:18:40.819Z,23.40
2022-10-19T21:20:46.190Z,23.40
2022-10-19T21:22:52.613Z,23.30
2022-10-19T21:24:56.758Z,23.30
2022-10-19T21:27:02.803Z,23.30
2022-10-19T21:29:12.487Z,23.30
2022-10-19T21:31:19.383Z,23.30
2022-10-19T21:33:26.177Z,23.30
2022-10-19T21:35:33.941Z,23.30
2022-10-19T21:37:42.775Z,23.30
2022-10-19T21:40:05.021Z,23.30
2022-10-19T21:42:12.399Z,23.30
2022-10-19T21:44:19.316Z,23.20
2022-10-19T21:46:23.729Z,23.20
2022-10-19T21:48:30.236Z,23.20
2022-10-19T21:50:37.359Z,23.20
2022-10-19T21:52:45.264Z,23.10
2022-10-19T21:54:56.715Z,23.10
2022-10-19T21:57:06.000Z,23.10
2022-10-19T21:59:13.213Z,23.20
2022-10-19T22:01:18.902Z,23.20
2022-10-19T22:03:25.094Z,23.10
2022-10-19T22:05:29.734Z,23.10
2022-10-19T22:07:36.166Z,23.10
2022-10-19T22:09:42.455Z,23.10
2022-10-19T22:12:00.635Z,23.10
2022-10-19T22:14:10.987Z,23.10
2022-10-19T22:16:18.008Z,23.10
2022-10-19T22:18:23.983Z,23.10
2022-10-19T22:20:49.175Z,23.10
2022-10-19T22:23:00.676Z,23.10
2022-10-19T22:25:10.312Z,23.10
2022-10-19T22:27:37.089Z,23.10
2022-10-19T22:29:44.134Z,23.10
2022-10-19T22:31:49.821Z,23.10
2022-10-19T22:33:54.838Z,23.10
2022-10-19T22:36:01.131Z,23.10
2022-10-19T22:38:05.773Z,23.20
2022-10-19T22:40:12.670Z,23.10
2022-10-19T22:42:18.541Z,23.20
2022-10-19T22:44:22.946Z,23.20
2022-10-19T22:46:29.021Z,23.20
2022-10-19T22:48:35.094Z,23.20
2022-10-19T22:50:38.949Z,23.20
2022-10-19T22:52:44.799Z,23.20
2022-10-19T22:54:52.194Z,23.20
2022-10-19T22:56:56.247Z,23.20
2022-10-19T22:59:01.825Z,23.20
2022-10-19T23:01:07.490Z,23.20
2022-10-19T23:03:11.498Z,23.30
2022-10-19T23:05:15.728Z,23.30
2022-10-19T23:07:22.148Z,23.30
2022-10-19T23:09:31.125Z,23.30
2022-10-19T23:11:53.805Z,23.30
2022-10-19T23:14:09.555Z,23.30
2022-10-19T23:16:26.028Z,23.30
2022-10-19T23:18:36.573Z,23.30
2022-10-19T23:20:45.626Z,23.30
2022-10-19T23:22:56.234Z,23.30
2022-10-19T23:25:05.090Z,23.40
2022-10-19T23:27:17.775Z,23.40
2022-10-19T23:29:23.602Z,23.40
2022-10-19T23:31:38.938Z,23.40
2022-10-19T23:33:44.665Z,23.40
2022-10-19T23:35:53.228Z,23.40
2022-10-19T23:38:03.082Z,23.40
2022-10-19T23:40:09.623Z,23.40
2022-10-19T23:42:17.812Z,23.40
2022-10-19T23:44:30.573Z,23.40
2022-10-19T23:46:47.814Z,23.50
2022-10-19T23:49:04.905Z,23.40
2022-10-19T23:51:12.546Z,23.40
2022-10-19T23:53:20.165Z,23.40
2022-10-19T23:55:28.992Z,23.50
2022-10-19T23:57:48.331Z,23.50
2022-10-19T23:59:57.917Z,23.60
